createdAt,value
2019-04-22T00:02:22.724Z,41.96
2019-04-22T00:05:04.762Z,42.11
2019-04-22T00:07:48.256Z,42.05
2019-04-22T00:10:26.123Z,42.07
2019-04-22T00:12:52.938Z,42.07
2019-04-22T00:15:20.255Z,42.02
2019-04-22T00:18:11.616Z,41.95
2019-04-22T00:20:31.027Z,42.12
2019-04-22T00:22:59.428Z,42.47
2019-04-22T00:25:36.618Z,42.47
2019-04-22T00:28:08.892Z,42.46
2019-04-22T00:30:34.295Z,42.69
2019-04-22T00:33:11.671Z,42.13
2019-04-22T00:35:41.609Z,42.04
2019-04-22T00:38:17.668Z,42.56
2019-04-22T00:43:21.111Z,41.04
2019-04-22T00:45:49.278Z,41.04
2019-04-22T00:51:05.812Z,41.44
2019-04-22T00:53:35.422Z,41.70
2019-04-22T00:56:08.886Z,42.26
2019-04-22T00:58:37.927Z,42.26
2019-04-22T01:01:14.380Z,42.80
2019-04-22T01:06:17.307Z,42.58
2019-04-22T01:08:53.638Z,42.61
2019-04-22T01:11:24.752Z,42.49
2019-04-22T01:13:52.833Z,42.58
2019-04-22T01:16:22.705Z,42.61
2019-04-22T01:18:49.080Z,42.55
2019-04-22T01:21:28.786Z,42.81
2019-04-22T01:23:52.120Z,42.63
2019-04-22T01:26:22.931Z,42.63
2019-04-22T01:28:50.104Z,42.69
2019-04-22T01:31:15.350Z,42.41
2019-04-22T01:33:47.704Z,42.93
2019-04-22T01:36:33.919Z,42.89
2019-04-22T01:39:02.362Z,42.89
2019-04-22T01:41:48.439Z,42.93
2019-04-22T01:44:22.628Z,42.93
2019-04-22T01:46:47.741Z,42.99
2019-04-22T01:49:19.223Z,42.87
2019-04-22T01:54:26.657Z,43.12
2019-04-22T01:59:15.622Z,43.10
2019-04-22T02:04:32.486Z,43.07
2019-04-22T02:06:57.822Z,43.07
2019-04-22T02:09:31.377Z,43.22
2019-04-22T02:12:00.180Z,43.51
2019-04-22T02:14:34.111Z,43.51
2019-04-22T02:19:35.742Z,43.43
2019-04-22T02:22:12.898Z,43.64
2019-04-22T02:27:23.954Z,43.60
2019-04-22T02:32:28.244Z,43.37
2019-04-22T02:35:02.101Z,43.57
2019-04-22T02:37:23.516Z,43.21
2019-04-22T02:39:59.011Z,43.21
2019-04-22T02:42:24.635Z,43.71
2019-04-22T02:44:53.282Z,43.27
2019-04-22T02:50:07.443Z,43.20
2019-04-22T02:52:37.078Z,43.28
2019-04-22T02:55:11.597Z,43.29
2019-04-22T02:57:47.431Z,43.30
2019-04-22T03:00:12.231Z,43.30
2019-04-22T03:05:17.764Z,43.48
2019-04-22T03:07:50.669Z,43.37
2019-04-22T03:10:26.713Z,43.85
2019-04-22T03:12:48.989Z,43.85
2019-04-22T03:15:17.363Z,43.76
2019-04-22T03:17:51.641Z,43.59
2019-04-22T03:20:17.832Z,43.59
2019-04-22T03:23:00.152Z,43.66
2019-04-22T03:25:51.755Z,43.59
2019-04-22T03:28:14.433Z,43.40
2019-04-22T03:30:50.524Z,43.40
2019-04-22T03:33:11.745Z,43.65
2019-04-22T03:37:55.946Z,43.56
2019-04-22T03:40:36.754Z,43.75
2019-04-22T03:48:09.307Z,43.30
2019-04-22T03:51:03.258Z,43.27
2019-04-22T03:55:43.393Z,43.29
2019-04-22T03:58:01.811Z,43.20
2019-04-22T04:00:49.820Z,43.20
2019-04-22T04:03:20.753Z,43.06
2019-04-22T04:05:54.236Z,43.06
2019-04-22T04:13:23.360Z,43.00
2019-04-22T04:15:55.736Z,43.00
2019-04-22T04:18:39.275Z,42.89
2019-04-22T04:26:17.667Z,42.74
2019-04-22T04:31:22.275Z,43.00
2019-04-22T04:33:50.924Z,42.82
2019-04-22T04:36:11.546Z,43.18
2019-04-22T04:38:58.295Z,43.06
2019-04-22T04:41:24.923Z,42.68
2019-04-22T04:44:03.689Z,42.91
2019-04-22T04:51:33.017Z,43.06
2019-04-22T04:54:05.850Z,43.12
2019-04-22T04:59:19.469Z,43.05
2019-04-22T05:01:44.974Z,42.54
2019-04-22T05:06:52.092Z,43.06
2019-04-22T05:09:15.155Z,42.71
2019-04-22T05:12:01.755Z,42.03
2019-04-22T05:14:14.887Z,42.65
2019-04-22T05:19:15.794Z,41.78
2019-04-22T05:21:39.949Z,41.59
2019-04-22T05:24:19.828Z,41.59
2019-04-22T05:26:50.627Z,41.22
2019-04-22T05:29:19.657Z,41.22
2019-04-22T05:34:26.461Z,41.04
2019-04-22T05:36:55.392Z,40.92
2019-04-22T05:39:22.592Z,40.80
2019-04-22T05:41:59.285Z,40.80
2019-04-22T05:44:29.485Z,40.25
2019-04-22T05:47:01.177Z,40.09
2019-04-22T05:49:47.763Z,40.09
2019-04-22T05:52:09.672Z,40.84
2019-04-22T05:54:41.107Z,40.85
2019-04-22T05:57:14.384Z,40.43
2019-04-22T05:59:48.742Z,39.45
2019-04-22T06:04:44.920Z,39.33
2019-04-22T06:07:14.510Z,39.33
2019-04-22T06:09:53.283Z,39.26
2019-04-22T06:12:17.189Z,38.74
2019-04-22T06:14:54.260Z,38.74
2019-04-22T06:17:24.800Z,39.57
2019-04-22T06:19:57.663Z,39.55
2019-04-22T06:22:38.707Z,39.55
2019-04-22T06:25:01.273Z,38.59
2019-04-22T06:27:34.047Z,38.59
2019-04-22T06:30:04.943Z,38.76
2019-04-22T06:32:31.441Z,38.13
2019-04-22T06:35:18.505Z,38.13
2019-04-22T06:37:43.351Z,38.02
2019-04-22T06:40:16.412Z,38.02
2019-04-22T06:42:44.114Z,38.01
2019-04-22T06:45:18.877Z,38.01
2019-04-22T06:47:59.151Z,38.00
2019-04-22T06:50:32.861Z,37.16
2019-04-22T06:52:52.299Z,36.79
2019-04-22T06:55:23.281Z,36.79
2019-04-22T06:57:53.004Z,37.00
2019-04-22T07:03:26.919Z,37.33
2019-04-22T07:05:28.051Z,37.47
2019-04-22T07:08:04.409Z,37.47
2019-04-22T07:10:45.324Z,37.87
2019-04-22T07:13:01.389Z,37.15
2019-04-22T07:15:46.552Z,37.69
2019-04-22T07:18:11.428Z,37.11
2019-04-22T07:23:13.395Z,35.68
2019-04-22T07:25:41.183Z,35.34
2019-04-22T07:28:17.742Z,35.34
2019-04-22T07:30:44.631Z,35.37
2019-04-22T07:33:31.192Z,34.09
2019-04-22T07:36:12.532Z,34.41
2019-04-22T07:40:56.323Z,34.72
2019-04-22T07:43:53.075Z,34.72
2019-04-22T07:46:06.998Z,33.81
2019-04-22T07:48:37.639Z,33.65
2019-04-22T07:51:07.213Z,33.51
2019-04-22T07:53:45.553Z,32.52
2019-04-22T07:56:12.403Z,32.00
2019-04-22T07:58:42.071Z,31.85
2019-04-22T08:04:05.478Z,30.72
2019-04-22T08:06:24.664Z,30.43
2019-04-22T08:08:55.601Z,30.08
2019-04-22T08:14:01.558Z,30.15
2019-04-22T08:16:28.444Z,30.43
2019-04-22T08:19:04.129Z,30.44
2019-04-22T08:21:29.860Z,30.44
2019-04-22T08:24:06.575Z,29.93
2019-04-22T08:26:41.149Z,29.75
2019-04-22T08:29:27.682Z,29.36
2019-04-22T08:31:40.053Z,29.41
2019-04-22T08:34:13.711Z,29.81
2019-04-22T08:37:12.371Z,29.72
2019-04-22T08:39:21.751Z,27.79
2019-04-22T08:41:44.155Z,27.79
2019-04-22T08:44:27.850Z,28.63
2019-04-22T08:46:56.202Z,27.51
2019-04-22T08:49:30.690Z,27.51
2019-04-22T08:52:01.309Z,28.21
2019-04-22T08:54:31.255Z,28.32
2019-04-22T08:57:06.528Z,28.56
2019-04-22T08:59:27.965Z,28.85
2019-04-22T09:02:13.377Z,27.53
2019-04-22T09:04:39.126Z,28.20
2019-04-22T09:09:44.776Z,27.58
2019-04-22T09:12:32.996Z,28.12
2019-04-22T09:14:47.612Z,28.12
2019-04-22T09:17:52.470Z,27.66
2019-04-22T09:20:20.418Z,27.66
2019-04-22T09:22:56.806Z,28.32
2019-04-22T09:25:34.543Z,28.60
2019-04-22T09:28:14.879Z,27.71
2019-04-22T09:33:25.802Z,28.33
2019-04-22T09:40:58.453Z,27.05
2019-04-22T09:43:32.232Z,27.26
2019-04-22T09:45:57.505Z,26.70
2019-04-22T09:51:05.380Z,27.23
2019-04-22T09:53:46.783Z,27.61
2019-04-22T09:56:18.115Z,27.61
2019-04-22T09:58:44.856Z,27.77
2019-04-22T10:01:26.164Z,27.77
2019-04-22T10:03:56.221Z,26.75
2019-04-22T10:06:33.583Z,26.75
2019-04-22T10:09:12.701Z,26.70
2019-04-22T10:16:35.418Z,25.55
2019-04-22T10:19:01.003Z,25.72
2019-04-22T10:21:40.691Z,25.83
2019-04-22T10:24:03.441Z,25.83
2019-04-22T10:26:39.096Z,25.58
2019-04-22T10:29:13.679Z,25.88
2019-04-22T10:31:43.629Z,26.08
2019-04-22T10:33:57.956Z,26.08
2019-04-22T10:36:17.175Z,25.92
2019-04-22T10:38:48.573Z,25.93
2019-04-22T10:41:20.695Z,25.33
2019-04-22T10:43:51.034Z,25.36
2019-04-22T10:46:21.906Z,25.15
2019-04-22T10:48:55.838Z,25.15
2019-04-22T10:51:28.663Z,23.96
2019-04-22T10:53:59.635Z,23.96
2019-04-22T10:56:32.760Z,24.43
2019-04-22T10:59:02.596Z,24.33
2019-04-22T11:01:33.868Z,25.00
2019-04-22T11:04:03.428Z,24.79
2019-04-22T11:06:38.825Z,24.63
2019-04-22T11:09:06.739Z,24.63
2019-04-22T11:11:46.827Z,24.94
2019-04-22T11:14:08.718Z,24.22
2019-04-22T11:16:39.485Z,24.42
2019-04-22T11:19:17.348Z,23.78
2019-04-22T11:22:02.650Z,23.89
2019-04-22T11:24:20.981Z,23.51
2019-04-22T11:26:58.777Z,22.87
2019-04-22T11:29:29.883Z,22.73
2019-04-22T11:32:00.225Z,23.31
2019-04-22T11:34:30.987Z,22.02
2019-04-22T11:37:01.116Z,22.02
2019-04-22T11:39:36.485Z,22.19
2019-04-22T11:42:07.895Z,21.95
2019-04-22T11:44:39.167Z,21.20
2019-04-22T11:49:43.795Z,21.23
2019-04-22T11:52:16.415Z,20.11
2019-04-22T11:54:46.501Z,20.67
2019-04-22T11:57:17.265Z,20.47
2019-04-22T11:59:49.035Z,20.35
2019-04-22T12:02:23.299Z,20.91
2019-04-22T12:04:53.927Z,20.91
2019-04-22T12:07:23.735Z,20.59
2019-04-22T12:09:55.720Z,20.97
2019-04-22T12:12:27.799Z,20.95
2019-04-22T12:15:00.745Z,21.80
2019-04-22T12:17:31.883Z,21.45
2019-04-22T12:20:05.590Z,20.91
2019-04-22T12:22:35.667Z,20.94
2019-04-22T12:25:06.440Z,20.42
2019-04-22T12:27:45.441Z,19.98
2019-04-22T12:30:16.845Z,20.59
2019-04-22T12:32:48.560Z,20.64
2019-04-22T12:35:22.351Z,20.31
2019-04-22T12:37:58.747Z,20.46
2019-04-22T12:40:32.738Z,20.33
2019-04-22T12:42:57.640Z,20.09
2019-04-22T12:45:27.335Z,20.62
2019-04-22T12:47:57.938Z,19.77
2019-04-22T12:50:32.927Z,19.91
2019-04-22T12:53:03.657Z,20.57
2019-04-22T12:55:32.402Z,20.49
2019-04-22T12:58:05.469Z,19.66
2019-04-22T13:00:36.624Z,19.93
2019-04-22T13:03:11.683Z,19.93
2019-04-22T13:05:45.134Z,20.47
2019-04-22T13:08:15.812Z,20.47
2019-04-22T13:10:59.333Z,20.80
2019-04-22T13:13:25.092Z,20.80
2019-04-22T13:15:59.213Z,20.44
2019-04-22T13:18:42.777Z,19.59
2019-04-22T13:21:15.003Z,20.49
2019-04-22T13:23:44.668Z,19.69
2019-04-22T13:26:15.231Z,19.56
2019-04-22T13:28:45.203Z,19.34
2019-04-22T13:31:16.037Z,19.51
2019-04-22T13:33:51.283Z,19.35
2019-04-22T13:36:22.718Z,19.74
2019-04-22T13:38:53.390Z,19.28
2019-04-22T13:41:33.015Z,19.12
2019-04-22T13:43:58.178Z,18.69
2019-04-22T13:46:31.719Z,18.69
2019-04-22T13:49:38.266Z,18.31
2019-04-22T13:52:20.690Z,19.17
2019-04-22T13:54:48.951Z,18.92
2019-04-22T13:57:19.837Z,19.08
2019-04-22T13:59:36.878Z,19.43
2019-04-22T14:02:30.718Z,19.43
2019-04-22T14:05:01.085Z,19.17
2019-04-22T14:07:37.032Z,20.15
2019-04-22T14:10:08.710Z,20.76
2019-04-22T14:12:42.948Z,20.76
2019-04-22T14:15:13.821Z,21.78
2019-04-22T14:17:45.269Z,21.34
2019-04-22T14:20:15.740Z,21.51
2019-04-22T14:22:46.304Z,20.83
2019-04-22T14:25:16.718Z,20.34
2019-04-22T14:27:54.683Z,20.26
2019-04-22T14:30:20.881Z,20.26
2019-04-22T14:32:55.925Z,21.52
2019-04-22T14:35:29.062Z,21.52
2019-04-22T14:37:58.590Z,21.42
2019-04-22T14:40:32.417Z,21.17
2019-04-22T14:43:25.349Z,20.71
2019-04-22T14:48:41.989Z,20.36
2019-04-22T14:51:06.093Z,20.73
2019-04-22T14:53:39.369Z,20.73
2019-04-22T14:55:50.504Z,20.66
2019-04-22T14:58:24.696Z,21.15
2019-04-22T15:00:56.930Z,21.15
2019-04-22T15:03:33.412Z,21.54
2019-04-22T15:06:04.259Z,21.66
2019-04-22T15:08:35.053Z,21.66
2019-04-22T15:11:08.763Z,21.78
2019-04-22T15:13:39.111Z,21.78
2019-04-22T15:16:34.408Z,21.33
2019-04-22T15:19:12.079Z,20.98
2019-04-22T15:21:43.009Z,21.38
2019-04-22T15:24:29.433Z,21.38
2019-04-22T15:27:10.980Z,20.54
2019-04-22T15:29:41.149Z,20.54
2019-04-22T15:32:11.779Z,20.88
2019-04-22T15:34:41.611Z,20.84
2019-04-22T15:37:11.938Z,20.44
2019-04-22T15:39:41.615Z,20.35
2019-04-22T15:42:19.848Z,20.35
2019-04-22T15:44:44.193Z,19.76
2019-04-22T15:47:15.104Z,19.67
2019-04-22T15:49:45.878Z,19.67
2019-04-22T15:52:16.674Z,19.58
2019-04-22T15:54:49.951Z,19.87
2019-04-22T15:57:17.702Z,19.87
2019-04-22T16:00:02.315Z,19.51
2019-04-22T16:02:19.516Z,18.90
2019-04-22T16:04:50.629Z,19.32
2019-04-22T16:07:22.393Z,18.96
2019-04-22T16:09:51.922Z,19.41
2019-04-22T16:12:28.656Z,19.26
2019-04-22T16:14:56.841Z,19.14
2019-04-22T16:17:24.400Z,18.87
2019-04-22T16:19:55.267Z,19.41
2019-04-22T16:22:25.559Z,19.13
2019-04-22T16:25:15.278Z,19.30
2019-04-22T16:27:46.436Z,19.22
2019-04-22T16:30:17.255Z,19.38
2019-04-22T16:32:49.475Z,19.34
2019-04-22T16:35:18.902Z,19.45
2019-04-22T16:37:48.618Z,19.90
2019-04-22T16:40:25.014Z,19.90
2019-04-22T16:43:00.951Z,20.59
2019-04-22T16:45:31.647Z,21.07
2019-04-22T16:48:02.169Z,20.95
2019-04-22T16:50:35.018Z,21.69
2019-04-22T16:53:06.045Z,21.69
2019-04-22T16:55:36.907Z,21.87
2019-04-22T16:58:10.495Z,22.99
2019-04-22T17:00:44.868Z,22.58
2019-04-22T17:03:52.334Z,22.96
2019-04-22T17:06:35.309Z,22.96
2019-04-22T17:09:06.746Z,23.42
2019-04-22T17:11:38.032Z,23.68
2019-04-22T17:14:11.199Z,23.68
2019-04-22T17:16:44.328Z,23.42
2019-04-22T17:19:15.312Z,23.40
2019-04-22T17:21:45.648Z,23.53
2019-04-22T17:24:17.479Z,23.53
2019-04-22T17:26:48.452Z,22.89
2019-04-22T17:29:18.673Z,22.89
2019-04-22T17:31:56.913Z,23.10
2019-04-22T17:34:21.184Z,23.30
2019-04-22T17:36:51.055Z,23.75
2019-04-22T17:39:38.122Z,23.75
2019-04-22T17:42:22.475Z,23.26
2019-04-22T17:45:15.753Z,23.89
2019-04-22T17:48:09.874Z,23.54
2019-04-22T17:50:44.389Z,24.27
2019-04-22T17:53:23.007Z,23.77
2019-04-22T17:55:55.301Z,24.51
2019-04-22T17:58:20.649Z,24.90
2019-04-22T18:00:51.943Z,24.90
2019-04-22T18:03:21.281Z,25.16
2019-04-22T18:05:59.521Z,25.43
2019-04-22T18:08:45.978Z,25.78
2019-04-22T18:11:31.895Z,26.29
2019-04-22T18:13:55.024Z,26.43
2019-04-22T18:16:25.765Z,27.26
2019-04-22T18:18:52.831Z,27.26
2019-04-22T18:21:25.195Z,26.96
2019-04-22T18:23:52.886Z,27.29
2019-04-22T18:26:31.755Z,27.38
2019-04-22T18:29:07.417Z,27.38
2019-04-22T18:31:38.523Z,27.44
2019-04-22T18:34:10.153Z,28.11
2019-04-22T18:36:40.589Z,27.64
2019-04-22T18:39:23.540Z,27.89
2019-04-22T18:41:52.053Z,27.83
2019-04-22T18:44:35.283Z,27.83
2019-04-22T18:47:03.672Z,28.00
2019-04-22T18:49:37.395Z,28.42
2019-04-22T18:52:47.942Z,28.54
2019-04-22T18:55:55.598Z,29.12
2019-04-22T18:58:27.382Z,28.63
2019-04-22T19:00:48.389Z,28.63
2019-04-22T19:03:24.284Z,28.97
2019-04-22T19:06:24.792Z,28.97
2019-04-22T19:08:43.418Z,29.18
2019-04-22T19:11:26.713Z,29.34
2019-04-22T19:18:56.562Z,29.57
2019-04-22T19:21:19.677Z,29.45
2019-04-22T19:23:56.612Z,29.41
2019-04-22T19:26:41.234Z,29.41
2019-04-22T19:29:00.399Z,29.45
2019-04-22T19:31:31.342Z,29.42
2019-04-22T19:34:04.588Z,29.23
2019-04-22T19:36:40.904Z,29.20
2019-04-22T19:39:10.445Z,29.06
2019-04-22T19:41:42.008Z,29.06
2019-04-22T19:44:13.243Z,29.32
2019-04-22T19:46:55.733Z,29.32
2019-04-22T19:49:24.589Z,29.66
2019-04-22T19:52:01.433Z,29.66
2019-04-22T19:54:19.065Z,30.33
2019-04-22T19:56:40.239Z,30.33
2019-04-22T19:59:23.525Z,30.36
2019-04-22T20:02:28.608Z,30.36
2019-04-22T20:05:19.869Z,30.37
2019-04-22T20:07:45.827Z,30.44
2019-04-22T20:10:25.136Z,30.97
2019-04-22T20:13:07.635Z,30.97
2019-04-22T20:15:30.323Z,31.01
2019-04-22T20:18:31.674Z,31.44
2019-04-22T20:20:46.567Z,31.53
2019-04-22T20:23:14.273Z,31.75
2019-04-22T20:25:54.610Z,32.48
2019-04-22T20:28:39.183Z,32.48
2019-04-22T20:31:08.415Z,32.25
2019-04-22T20:33:48.188Z,32.38
2019-04-22T20:36:36.403Z,32.64
2019-04-22T20:38:39.975Z,32.57
2019-04-22T20:41:15.008Z,32.64
2019-04-22T20:43:52.536Z,32.78
2019-04-22T20:46:22.376Z,32.78
2019-04-22T20:48:56.866Z,32.80
2019-04-22T20:51:38.980Z,33.03
2019-04-22T20:54:05.547Z,33.14
2019-04-22T20:56:31.501Z,33.19
2019-04-22T20:59:04.581Z,33.41
2019-04-22T21:01:36.889Z,33.36
2019-04-22T21:03:57.666Z,33.58
2019-04-22T21:06:44.268Z,33.70
2019-04-22T21:09:18.357Z,33.82
2019-04-22T21:11:46.767Z,33.82
2019-04-22T21:14:17.152Z,34.15
2019-04-22T21:16:53.267Z,34.29
2019-04-22T21:19:27.691Z,34.51
2019-04-22T21:22:02.004Z,34.51
2019-04-22T21:24:29.384Z,34.63
2019-04-22T21:27:06.134Z,35.07
2019-04-22T21:29:33.657Z,35.07
2019-04-22T21:32:09.075Z,35.38
2019-04-22T21:34:43.669Z,35.38
2019-04-22T21:37:20.314Z,35.57
2019-04-22T21:39:44.759Z,35.89
2019-04-22T21:42:24.985Z,35.89
2019-04-22T21:44:49.713Z,36.38
2019-04-22T21:47:36.172Z,36.66
2019-04-22T21:50:21.390Z,36.78
2019-04-22T21:52:33.231Z,37.15
2019-04-22T21:55:14.488Z,37.15
2019-04-22T21:58:04.833Z,37.76
2019-04-22T22:03:10.908Z,38.40
2019-04-22T22:05:28.455Z,38.40
2019-04-22T22:07:56.843Z,38.79
2019-04-22T22:10:43.440Z,38.79
2019-04-22T22:13:13.839Z,39.49
2019-04-22T22:15:46.590Z,39.49
2019-04-22T22:18:16.433Z,39.63
2019-04-22T22:20:53.792Z,40.02
2019-04-22T22:23:28.889Z,40.14
2019-04-22T22:25:50.751Z,40.28
2019-04-22T22:28:33.420Z,40.28
2019-04-22T22:31:17.113Z,40.43
2019-04-22T22:33:26.911Z,40.43
2019-04-22T22:35:58.370Z,40.73
2019-04-22T22:38:27.333Z,40.88
2019-04-22T22:40:45.958Z,40.88
2019-04-22T22:43:25.968Z,41.16
2019-04-22T22:46:00.788Z,41.16
2019-04-22T22:48:48.133Z,41.40
2019-04-22T22:51:15.057Z,41.42
2019-04-22T22:54:06.345Z,41.84
2019-04-22T22:56:18.799Z,41.77
2019-04-22T22:58:52.480Z,41.71
2019-04-22T23:01:28.698Z,41.91
2019-04-22T23:06:32.942Z,42.13
2019-04-22T23:09:01.906Z,41.95
2019-04-22T23:11:45.718Z,41.86
2019-04-22T23:14:02.535Z,41.86
2019-04-22T23:16:22.030Z,42.14
2019-04-22T23:19:02.104Z,42.05
2019-04-22T23:21:39.119Z,41.78
2019-04-22T23:24:22.723Z,41.55
2019-04-22T23:27:11.724Z,41.48
2019-04-22T23:30:01.727Z,41.48
2019-04-22T23:32:31.789Z,41.36
2019-04-22T23:35:22.635Z,41.36
2019-04-22T23:37:52.638Z,41.36
2019-04-22T23:40:32.563Z,41.27
2019-04-22T23:43:05.480Z,41.13
2019-04-22T23:45:34.789Z,41.13
2019-04-22T23:48:01.206Z,41.03
2019-04-22T23:50:41.246Z,41.18
2019-04-22T23:53:46.043Z,41.18
2019-04-22T23:56:00.530Z,41.13
2019-04-22T23:58:47.659Z,41.13
